createdAt,value
2023-02-03T00:04:34.080Z,85.42
2023-02-03T00:09:35.741Z,85.44
2023-02-03T00:14:38.099Z,85.54
2023-02-03T00:19:39.949Z,85.69
2023-02-03T00:24:41.621Z,85.93
2023-02-03T00:29:43.249Z,86.12
2023-02-03T00:34:44.991Z,85.81
2023-02-03T00:39:46.703Z,85.47
2023-02-03T00:44:48.583Z,85.83
2023-02-03T00:49:50.565Z,86.01
2023-02-03T00:54:52.221Z,86.10
2023-02-03T00:59:54.930Z,86.10
2023-02-03T01:04:56.615Z,86.02
2023-02-03T01:09:58.514Z,86.42
2023-02-03T01:15:00.205Z,86.35
2023-02-03T01:20:02.046Z,86.62
2023-02-03T01:25:04.297Z,87.19
2023-02-03T01:30:06.919Z,87.40
2023-02-03T01:35:09.347Z,86.99
2023-02-03T01:40:11.563Z,87.11
2023-02-03T01:45:13.784Z,87.25
2023-02-03T01:50:31.803Z,86.92
2023-02-03T01:55:38.726Z,86.95
2023-02-03T02:00:41.114Z,87.50
2023-02-03T02:05:50.849Z,87.56
2023-02-03T02:10:53.500Z,87.02
2023-02-03T02:16:20.145Z,87.51
2023-02-03T02:21:46.301Z,87.71
2023-02-03T02:27:18.215Z,87.71
2023-02-03T02:33:07.377Z,88.32
2023-02-03T02:38:25.721Z,88.42
2023-02-03T02:43:46.684Z,88.43
2023-02-03T02:48:55.915Z,88.99
2023-02-03T02:54:05.649Z,89.07
2023-02-03T02:59:08.037Z,88.92
2023-02-03T03:04:12.449Z,89.45
2023-02-03T03:09:22.712Z,89.27
2023-02-03T03:14:27.966Z,89.85
2023-02-03T03:19:38.003Z,90.24
2023-02-03T03:24:54.418Z,91.22
2023-02-03T03:30:23.817Z,91.20
2023-02-03T03:35:37.088Z,91.94
2023-02-03T03:40:45.411Z,91.41
2023-02-03T03:45:56.150Z,91.95
2023-02-03T03:51:07.235Z,92.32
2023-02-03T03:56:14.229Z,92.96
2023-02-03T04:01:16.767Z,93.88
2023-02-03T04:06:18.567Z,93.67
2023-02-03T04:11:38.747Z,94.79
2023-02-03T04:16:40.519Z,95.70
2023-02-03T04:21:42.185Z,96.39
2023-02-03T04:26:43.907Z,96.10
2023-02-03T04:31:45.662Z,95.56
2023-02-03T04:36:47.303Z,95.54
2023-02-03T04:41:49.108Z,94.96
2023-02-03T04:46:50.874Z,95.17
2023-02-03T04:51:52.564Z,94.80
2023-02-03T04:56:54.251Z,94.46
2023-02-03T05:01:55.884Z,95.17
2023-02-03T05:06:57.821Z,95.82
2023-02-03T05:11:59.638Z,96.18
2023-02-03T05:17:01.338Z,95.13
2023-02-03T05:22:02.966Z,95.90
2023-02-03T05:27:04.648Z,97.14
2023-02-03T05:32:06.506Z,95.81
2023-02-03T05:37:08.127Z,95.93
2023-02-03T05:42:09.748Z,95.94
2023-02-03T05:47:11.316Z,95.99
2023-02-03T05:52:13.150Z,95.02
2023-02-03T05:57:14.839Z,94.72
2023-02-03T06:02:16.447Z,95.26
2023-02-03T06:07:18.725Z,97.00
2023-02-03T06:12:20.575Z,97.89
2023-02-03T06:17:22.193Z,98.56
2023-02-03T06:22:24.271Z,98.74
2023-02-03T06:27:26.023Z,99.04
2023-02-03T06:32:27.757Z,99.42
2023-02-03T06:37:29.510Z,99.01
2023-02-03T06:42:31.803Z,99.29
2023-02-03T06:47:33.403Z,98.85
2023-02-03T06:52:35.004Z,98.59
2023-02-03T06:57:43.552Z,99.05
2023-02-03T07:02:46.009Z,98.87
2023-02-03T07:07:47.868Z,98.50
2023-02-03T07:12:50.774Z,98.20
2023-02-03T07:17:55.004Z,97.74
2023-02-03T07:22:58.486Z,97.67
2023-02-03T07:28:00.374Z,97.40
2023-02-03T07:33:02.325Z,97.93
2023-02-03T07:38:04.067Z,98.00
2023-02-03T07:43:05.898Z,97.74
2023-02-03T07:48:07.554Z,97.06
2023-02-03T07:53:09.544Z,96.95
2023-02-03T07:58:11.261Z,96.83
2023-02-03T08:03:13.004Z,95.82
2023-02-03T08:08:14.688Z,96.12
2023-02-03T08:13:16.299Z,94.66
2023-02-03T08:18:18.078Z,93.86
2023-02-03T08:23:20.098Z,93.67
2023-02-03T08:28:21.823Z,93.32
2023-02-03T08:33:23.909Z,91.93
2023-02-03T08:38:25.868Z,91.74
2023-02-03T08:43:28.192Z,91.42
2023-02-03T08:48:29.844Z,90.47
2023-02-03T08:53:31.471Z,90.21
2023-02-03T08:58:33.154Z,89.06
2023-02-03T09:03:34.920Z,87.70
2023-02-03T09:08:38.853Z,86.53
2023-02-03T09:13:40.965Z,85.64
2023-02-03T09:18:43.537Z,85.50
2023-02-03T09:23:45.779Z,85.48
2023-02-03T09:28:47.707Z,84.31
2023-02-03T09:33:49.520Z,84.06
2023-02-03T09:38:51.781Z,83.04
2023-02-03T09:43:56.537Z,82.57
2023-02-03T09:49:03.143Z,82.29
2023-02-03T09:54:17.713Z,81.09
2023-02-03T09:59:19.906Z,80.34
2023-02-03T10:04:40.197Z,80.29
2023-02-03T10:09:55.036Z,79.07
2023-02-03T10:15:02.732Z,79.44
2023-02-03T10:20:13.650Z,79.44
2023-02-03T10:25:38.624Z,79.47
2023-02-03T10:30:45.690Z,79.83
2023-02-03T10:36:05.518Z,77.95
2023-02-03T10:41:07.455Z,78.66
2023-02-03T10:46:09.406Z,78.64
2023-02-03T10:51:19.646Z,79.27
2023-02-03T10:56:29.648Z,79.01
2023-02-03T11:01:31.267Z,78.71
2023-02-03T11:06:37.007Z,78.42
2023-02-03T11:11:41.800Z,78.70
2023-02-03T11:16:44.580Z,78.13
2023-02-03T11:21:52.294Z,78.15
2023-02-03T11:27:18.539Z,77.08
2023-02-03T11:32:35.231Z,77.97
2023-02-03T11:37:42.088Z,77.88
2023-02-03T11:42:46.314Z,78.87
2023-02-03T11:47:54.015Z,79.68
2023-02-03T11:52:58.434Z,80.87
2023-02-03T11:58:00.350Z,79.99
2023-02-03T12:03:30.080Z,79.21
2023-02-03T12:08:31.641Z,78.83
2023-02-03T12:14:01.086Z,79.56
2023-02-03T12:19:15.185Z,80.76
2023-02-03T12:24:33.661Z,82.42
2023-02-03T12:29:43.976Z,83.23
2023-02-03T12:35:27.718Z,84.14
2023-02-03T12:40:41.043Z,83.73
2023-02-03T12:46:04.849Z,84.58
2023-02-03T12:51:14.718Z,82.33
2023-02-03T12:56:23.022Z,80.44
2023-02-03T13:01:31.866Z,80.08
2023-02-03T13:06:49.989Z,80.90
2023-02-03T13:12:04.318Z,78.80
2023-02-03T13:17:12.420Z,79.19
2023-02-03T13:22:17.233Z,79.32
2023-02-03T13:27:28.355Z,78.53
2023-02-03T13:32:45.221Z,78.01
2023-02-03T13:37:53.408Z,77.38
2023-02-03T13:43:06.067Z,77.46
2023-02-03T13:48:24.423Z,78.80
2023-02-03T13:53:26.842Z,82.65
2023-02-03T13:58:31.988Z,83.10
2023-02-03T14:03:36.876Z,81.28
2023-02-03T14:08:38.474Z,81.82
2023-02-03T14:13:40.134Z,85.00
2023-02-03T14:18:46.196Z,87.59
2023-02-03T14:23:59.065Z,89.43
2023-02-03T14:29:03.226Z,89.35
2023-02-03T14:34:13.352Z,90.95
2023-02-03T14:39:18.020Z,90.62
2023-02-03T14:44:19.571Z,91.11
2023-02-03T14:49:32.828Z,90.91
2023-02-03T14:54:51.409Z,90.42
2023-02-03T15:00:27.150Z,90.86
2023-02-03T15:05:29.773Z,90.34
2023-02-03T15:10:45.191Z,90.43
2023-02-03T15:15:50.122Z,90.84
2023-02-03T15:20:56.096Z,91.18
2023-02-03T15:26:13.147Z,90.30
2023-02-03T15:31:23.622Z,90.64
2023-02-03T15:36:32.829Z,89.84
2023-02-03T15:41:34.863Z,87.62
2023-02-03T15:46:43.813Z,86.69
2023-02-03T15:52:11.628Z,87.38
2023-02-03T15:57:23.579Z,86.30
2023-02-03T16:02:36.749Z,84.96
2023-02-03T16:07:38.528Z,84.48
2023-02-03T16:12:41.558Z,84.59
2023-02-03T16:17:43.333Z,84.58
2023-02-03T16:22:47.817Z,83.50
2023-02-03T16:28:30.301Z,83.25
2023-02-03T16:33:53.330Z,83.06
2023-02-03T16:39:14.270Z,82.38
2023-02-03T16:44:34.541Z,81.87
2023-02-03T16:49:54.807Z,82.12
2023-02-03T16:54:56.590Z,81.71
2023-02-03T16:59:58.267Z,81.33
2023-02-03T17:05:00.243Z,81.19
2023-02-03T17:10:02.244Z,82.20
2023-02-03T17:15:07.962Z,81.85
2023-02-03T17:20:10.638Z,81.85
2023-02-03T17:25:12.548Z,81.78
2023-02-03T17:30:14.590Z,81.29
2023-02-03T17:35:16.377Z,81.89
2023-02-03T17:56:36.140Z,89.01
2023-02-03T18:01:39.140Z,91.78
2023-02-03T18:06:40.971Z,94.17
2023-02-03T18:11:42.839Z,94.99
2023-02-03T18:16:45.150Z,94.83
2023-02-03T18:21:46.879Z,95.81
2023-02-03T18:26:51.856Z,96.31
2023-02-03T18:31:53.716Z,96.13
2023-02-03T18:36:56.586Z,96.37
2023-02-03T18:41:58.289Z,95.82
2023-02-03T18:47:07.090Z,96.29
2023-02-03T18:52:09.150Z,95.90
2023-02-03T18:57:13.975Z,95.77
2023-02-03T19:02:15.860Z,94.36
2023-02-03T19:07:17.733Z,95.30
2023-02-03T19:12:19.349Z,96.91
2023-02-03T19:17:22.977Z,96.62
2023-02-03T19:22:25.871Z,97.85
2023-02-03T19:27:27.885Z,97.79
2023-02-03T19:32:31.107Z,98.16
2023-02-03T19:37:32.816Z,97.56
2023-02-03T19:42:34.412Z,96.94
2023-02-03T19:47:36.245Z,96.94
2023-02-03T19:52:38.053Z,97.81
2023-02-03T19:57:40.288Z,98.27
2023-02-03T20:02:42.080Z,98.11
2023-02-03T20:07:44.154Z,97.91
2023-02-03T20:12:46.384Z,97.64
2023-02-03T20:17:48.506Z,98.03
2023-02-03T20:22:50.541Z,98.26
2023-02-03T20:27:53.608Z,98.43
2023-02-03T20:32:56.236Z,99.13
2023-02-03T20:37:58.087Z,98.86
2023-02-03T20:43:05.984Z,99.01
2023-02-03T20:48:11.784Z,99.07
2023-02-03T20:53:17.476Z,98.50
2023-02-03T20:58:24.171Z,98.25
2023-02-03T21:03:45.628Z,97.34
2023-02-03T21:08:48.262Z,96.44
2023-02-03T21:13:50.041Z,95.39
2023-02-03T21:18:56.686Z,93.94
2023-02-03T21:23:58.347Z,92.29
2023-02-03T21:29:01.565Z,90.59
2023-02-03T21:34:16.924Z,90.25
2023-02-03T21:39:28.564Z,88.72
2023-02-03T21:44:36.052Z,89.33
2023-02-03T21:49:41.125Z,87.51
2023-02-03T21:54:44.597Z,87.42
2023-02-03T21:59:52.973Z,86.96
2023-02-03T22:04:55.520Z,87.06
2023-02-03T22:09:57.264Z,86.04
2023-02-03T22:14:58.866Z,85.75
2023-02-03T22:20:00.450Z,85.06
2023-02-03T22:25:02.088Z,84.41
2023-02-03T22:30:05.329Z,83.95
2023-02-03T22:35:09.195Z,82.72
2023-02-03T22:40:11.466Z,82.08
2023-02-03T22:45:13.488Z,82.27
2023-02-03T22:50:17.490Z,81.52
2023-02-03T22:55:22.535Z,81.43
2023-02-03T23:00:25.200Z,81.76
2023-02-03T23:05:27.075Z,80.52
2023-02-03T23:10:32.753Z,79.47
2023-02-03T23:15:34.579Z,80.57
2023-02-03T23:20:36.246Z,79.99
2023-02-03T23:25:38.099Z,79.01
2023-02-03T23:30:39.804Z,78.26
2023-02-03T23:35:49.271Z,77.98
2023-02-03T23:40:50.999Z,77.87
2023-02-03T23:45:52.819Z,75.55
2023-02-03T23:50:54.541Z,75.43
2023-02-03T23:55:56.154Z,74.98
